Time;durP1;ratioP1;P1;durP2;ratioP2;P2;SDS_P1;SDS_P2;PMS_P1;PMS_P2;Temp;Humidity;BMP_temperature;BMP_pressure;BME280_temperature;BME280_humidity;BME280_pressure;Samples;Min_cycle;Max_cycle;Signal;HPM_P1;HPM_P2
2022/07/10 00:02:30;;;;;;;1.43;1.33;;;16.70;99.90;18.10;97188.00;;;;5040658;28;20204;-68
2022/07/10 00:05:20;;;;;;;1.20;1.10;;;17.70;99.90;18.10;97199.00;;;;5029540;28;20201;-68
2022/07/10 00:08:08;;;;;;;4.20;1.67;;;16.70;99.90;18.20;97203.00;;;;5036043;28;20664;-67
2022/07/10 00:10:57;;;;;;;1.83;1.27;;;16.70;99.90;17.90;97207.00;;;;5044949;28;20232;-67
2022/07/10 00:13:46;;;;;;;1.40;1.30;;;16.70;99.90;17.70;97201.00;;;;5030841;28;20758;-67
2022/07/10 00:16:36;;;;;;;6.07;1.43;;;16.60;99.90;17.50;97200.00;;;;5039747;28;20200;-68
2022/07/10 00:19:26;;;;;;;4.43;1.47;;;16.60;99.90;17.70;97197.00;;;;5042691;28;20227;-68
2022/07/10 00:22:15;;;;;;;2.00;1.73;;;16.50;99.90;17.90;97196.00;;;;5039580;28;20201;-68
2022/07/10 00:25:04;;;;;;;1.10;1.10;;;16.50;99.90;17.80;97192.00;;;;5046787;28;20207;-67
2022/07/10 00:27:53;;;;;;;2.00;1.50;;;16.50;99.90;17.60;97199.00;;;;5043593;28;20200;-67
2022/07/10 00:30:42;;;;;;;1.50;1.40;;;16.40;99.90;17.50;97191.00;;;;5044821;28;20217;-67
2022/07/10 00:33:32;;;;;;;1.50;1.40;;;16.40;99.90;17.70;97182.00;;;;5040779;28;20225;-67
2022/07/10 00:36:22;;;;;;;1.57;1.20;;;16.40;99.90;17.90;97183.00;;;;5030243;28;20609;-67
2022/07/10 00:39:11;;;;;;;1.00;1.00;;;16.40;99.90;18.00;97178.00;;;;5031168;28;20212;-67
2022/07/10 00:42:08;;;;;;;1.83;1.10;;;16.50;99.90;18.00;97176.00;;;;5038328;28;20193;-67
2022/07/10 00:44:57;;;;;;;1.40;1.30;;;16.50;99.90;18.00;97174.00;;;;5039354;28;20212;-67
2022/07/10 00:47:46;;;;;;;2.17;1.23;;;16.50;99.90;18.00;97180.00;;;;5046145;28;20208;-67
2022/07/10 00:50:35;;;;;;;0.97;0.97;;;16.50;99.90;18.00;97176.00;;;;5038497;28;20223;-67
2022/07/10 00:53:25;;;;;;;1.83;1.60;;;16.50;99.90;18.00;97169.00;;;;5028398;28;20220;-67
2022/07/10 00:56:17;;;;;;;1.87;1.73;;;16.50;99.90;17.90;97167.00;;;;5035991;28;20193;-67
2022/07/10 00:59:06;;;;;;;1.43;1.20;;;16.50;99.90;17.50;97173.00;;;;5042984;28;20190;-67
2022/07/10 01:01:55;;;;;;;2.50;1.77;;;16.40;99.90;17.40;97163.00;;;;5040136;28;20203;-67
2022/07/10 01:04:44;;;;;;;1.70;1.60;;;16.30;99.90;17.20;97157.00;;;;5043032;28;20193;-67
2022/07/10 01:07:32;;;;;;;1.93;1.47;;;16.30;99.90;17.50;97148.00;;;;5039912;28;20205;-67
2022/07/10 01:10:23;;;;;;;2.20;1.40;;;16.20;99.90;17.70;97140.00;;;;5042842;28;20972;-67
2022/07/10 01:13:11;;;;;;;2.50;1.60;;;16.20;99.90;17.40;97143.00;;;;5033706;28;20228;-67
2022/07/10 01:16:01;;;;;;;2.20;1.47;;;16.20;99.90;16.70;97144.00;;;;5034209;28;20197;-69
2022/07/10 01:18:50;;;;;;;1.70;1.30;;;16.00;99.90;16.20;97149.00;;;;5035396;28;20214;-67
2022/07/10 01:21:40;;;;;;;1.80;1.47;;;15.90;99.90;16.40;97142.00;;;;5045765;28;20196;-67
2022/07/10 01:24:29;;;;;;;2.67;1.80;;;15.70;99.90;16.30;97120.00;;;;5040885;28;20204;-67
2022/07/10 01:27:17;;;;;;;2.87;1.40;;;15.50;99.90;16.60;97136.00;;;;5037419;28;20205;-68
2022/07/10 01:30:08;;;;;;;3.87;2.10;;;15.50;99.90;16.70;97136.00;;;;5040933;28;20231;-67
2022/07/10 01:32:57;;;;;;;1.30;1.20;;;15.40;99.90;16.70;97137.00;;;;5035719;28;20203;-68
2022/07/10 01:35:46;;;;;;;1.90;1.80;;;15.40;99.90;17.00;97121.00;;;;5049462;28;20196;-67
2022/07/10 01:38:36;;;;;;;1.83;1.50;;;15.50;99.90;16.80;97120.00;;;;5035797;28;20716;-67
2022/07/10 01:41:25;;;;;;;2.17;1.53;;;15.50;99.90;16.70;97110.00;;;;5034776;28;20213;-67
2022/07/10 01:44:14;;;;;;;1.70;1.60;;;15.40;99.90;16.90;97110.00;;;;5043585;28;20204;-67
2022/07/10 01:47:04;;;;;;;1.53;1.43;;;15.40;99.90;16.80;97104.00;;;;5033321;28;20205;-67
2022/07/10 01:49:53;;;;;;;1.50;1.40;;;15.50;99.90;16.50;97110.00;;;;5031591;28;20229;-67
2022/07/10 01:52:42;;;;;;;1.43;1.33;;;15.40;99.90;16.70;97104.00;;;;5031996;28;20205;-67
2022/07/10 01:55:32;;;;;;;1.77;1.53;;;15.40;99.90;16.70;97111.00;;;;5039640;28;20227;-67
2022/07/10 01:58:21;;;;;;;1.43;1.33;;;15.50;99.90;16.90;97122.00;;;;5050686;28;20200;-67
2022/07/10 02:01:11;;;;;;;2.17;1.90;;;15.50;99.90;17.00;97118.00;;;;5042462;28;20224;-67
2022/07/10 02:07:06;;;;;;;1.67;1.57;;;15.50;99.90;16.30;97093.00;;;;5039075;28;20226;-66
2022/07/10 02:09:55;;;;;;;2.03;1.63;;;15.40;99.90;16.40;97111.00;;;;5034741;28;20704;-67
2022/07/10 02:12:45;;;;;;;1.53;1.43;;;15.30;99.90;16.40;97108.00;;;;5034315;28;20796;-66
2022/07/10 02:15:33;;;;;;;2.37;2.17;;;15.30;99.90;16.50;97094.00;;;;5048462;28;20225;-67
2022/07/10 02:18:22;;;;;;;2.40;2.07;;;15.30;99.90;16.60;97097.00;;;;5039673;28;20201;-67
2022/07/10 02:21:11;;;;;;;1.80;1.70;;;15.20;99.90;16.80;97094.00;;;;5047340;28;20699;-67
2022/07/10 02:24:00;;;;;;;1.83;1.67;;;15.30;99.90;16.70;97098.00;;;;5041127;28;20719;-67
2022/07/10 02:26:49;;;;;;;1.80;1.70;;;15.30;99.90;16.80;97093.00;;;;5040250;28;20197;-67
2022/07/10 02:29:39;;;;;;;1.30;1.30;;;15.30;99.90;16.70;97087.00;;;;5042545;28;20221;-67
2022/07/10 02:32:28;;;;;;;1.63;1.53;;;15.30;99.90;16.70;97101.00;;;;5042139;28;20205;-67
2022/07/10 02:35:17;;;;;;;1.70;1.40;;;15.30;99.90;16.80;97110.00;;;;5044082;28;20221;-67
2022/07/10 02:38:06;;;;;;;1.73;1.63;;;15.30;99.90;16.80;97103.00;;;;5037059;28;20699;-67
2022/07/10 02:40:54;;;;;;;2.07;1.80;;;15.30;99.90;16.80;97099.00;;;;5038484;28;20220;-67
2022/07/10 02:43:43;;;;;;;3.67;2.40;;;15.30;99.90;16.80;97100.00;;;;5043651;28;20211;-67
2022/07/10 02:46:33;;;;;;;3.10;1.73;;;15.40;99.90;16.70;97097.00;;;;5048101;28;20204;-67
2022/07/10 02:49:22;;;;;;;2.17;1.70;;;15.30;99.90;16.70;97092.00;;;;5047138;28;20243;-67
2022/07/10 02:52:11;;;;;;;2.70;2.27;;;15.30;99.90;16.80;97097.00;;;;5037803;28;20200;-67
2022/07/10 02:55:00;;;;;;;2.83;1.87;;;15.30;99.90;16.80;97089.00;;;;5043765;28;20232;-67
2022/07/10 02:57:49;;;;;;;1.90;1.80;;;15.30;99.90;16.80;97084.00;;;;5031729;28;20600;-67
2022/07/10 03:00:38;;;;;;;2.63;2.43;;;15.30;99.90;16.80;97086.00;;;;5048195;28;20722;-67
2022/07/10 03:03:28;;;;;;;2.43;1.77;;;15.40;99.90;16.50;97100.00;;;;5035711;28;20582;-67
2022/07/10 03:06:17;;;;;;;2.00;1.90;;;15.30;99.90;16.30;97094.00;;;;5042331;28;20196;-67
2022/07/10 03:09:05;;;;;;;2.30;2.10;;;15.30;99.90;16.40;97099.00;;;;5046049;28;20566;-67
2022/07/10 03:11:54;;;;;;;1.80;1.70;;;15.20;99.90;16.20;97099.00;;;;5042398;28;20684;-67
2022/07/10 03:14:44;;;;;;;1.70;1.60;;;15.20;99.90;16.30;97099.00;;;;5032259;28;20217;-67
2022/07/10 03:17:33;;;;;;;4.63;1.87;;;15.20;99.90;16.40;97094.00;;;;5039200;28;20577;-67
2022/07/10 03:20:23;;;;;;;1.63;1.53;;;15.10;99.90;16.70;97101.00;;;;5039315;28;20891;-67
2022/07/10 03:23:12;;;;;;;3.37;2.47;;;15.10;99.90;16.80;97108.00;;;;5037748;28;20216;-67
2022/07/10 03:26:01;;;;;;;2.37;2.10;;;15.20;99.90;16.80;97101.00;;;;5043689;28;20197;-66
2022/07/10 03:28:50;;;;;;;3.13;1.90;;;15.20;99.90;16.60;97096.00;;;;5044687;28;20205;-66
2022/07/10 03:31:38;;;;;;;2.17;1.97;;;15.30;99.90;16.70;97103.00;;;;5037309;28;20205;-67
2022/07/10 03:34:27;;;;;;;3.13;2.10;;;15.30;99.90;16.80;97101.00;;;;5040765;28;20291;-66
2022/07/10 03:37:17;;;;;;;2.00;1.90;;;15.30;99.90;16.80;97089.00;;;;5045913;28;20196;-66
2022/07/10 03:40:07;;;;;;;2.33;2.13;;;15.30;99.90;16.80;97092.00;;;;5034040;28;20221;-67
2022/07/10 03:42:56;;;;;;;2.50;2.30;;;15.40;99.90;16.70;97088.00;;;;5031174;28;20192;-67
2022/07/10 03:45:45;;;;;;;2.00;1.90;;;15.40;99.90;16.70;97097.00;;;;5035933;28;20204;-67
2022/07/10 03:48:34;;;;;;;2.90;2.03;;;15.30;99.90;16.80;97094.00;;;;5035915;28;20198;-66
2022/07/10 03:51:23;;;;;;;2.13;1.97;;;15.30;99.90;16.80;97098.00;;;;5040258;28;20540;-67
2022/07/10 03:54:13;;;;;;;2.43;2.23;;;15.30;99.90;16.80;97079.00;;;;5046317;28;20204;-67
2022/07/10 04:00:11;;;;;;;2.47;2.27;;;15.40;99.90;16.70;97062.00;;;;5048414;28;20625;-67
2022/07/10 04:03:01;;;;;;;2.60;2.40;;;15.40;99.90;16.50;97064.00;;;;5034917;28;20217;-66
2022/07/10 04:05:51;;;;;;;2.10;1.90;;;15.30;99.90;16.50;97066.00;;;;5040448;28;20204;-66
2022/07/10 04:08:40;;;;;;;2.70;2.40;;;15.30;99.90;16.70;97065.00;;;;5047698;28;20888;-66
2022/07/10 04:11:30;;;;;;;2.57;2.23;;;15.30;99.90;16.70;97061.00;;;;5046074;28;20204;-67
2022/07/10 04:14:20;;;;;;;2.60;2.40;;;15.30;99.90;16.70;97053.00;;;;5043539;28;20208;-67
2022/07/10 04:17:08;;;;;;;2.63;2.33;;;15.30;99.90;16.70;97048.00;;;;5046405;28;20207;-66
2022/07/10 04:19:57;;;;;;;5.03;1.70;;;15.30;99.90;16.70;97045.00;;;;5045391;28;20246;-67
2022/07/10 04:22:46;;;;;;;2.33;2.13;;;15.30;99.90;16.50;97035.00;;;;5033421;28;20201;-67
2022/07/10 04:25:35;;;;;;;2.20;2.10;;;15.30;99.90;16.40;97049.00;;;;5042037;28;20204;-67
2022/07/10 04:28:25;;;;;;;3.37;1.77;;;15.20;99.90;16.20;97045.00;;;;5047851;28;20197;-66
2022/07/10 04:31:14;;;;;;;2.40;2.20;;;15.20;99.90;16.20;97061.00;;;;5034673;28;20717;-67
2022/07/10 04:34:03;;;;;;;2.40;2.30;;;15.10;99.90;16.00;97045.00;;;;5030791;28;20201;-66
2022/07/10 04:36:52;;;;;;;2.13;2.00;;;15.10;99.90;15.60;97044.00;;;;5032520;28;20232;-66
2022/07/10 04:39:41;;;;;;;2.00;1.90;;;14.90;99.90;15.60;97056.00;;;;5031535;28;20224;-68
2022/07/10 04:42:30;;;;;;;2.87;2.67;;;14.80;99.90;15.80;97056.00;;;;5044732;28;20208;-66
2022/07/10 04:45:20;;;;;;;3.13;2.87;;;14.80;99.90;16.30;97055.00;;;;5046575;28;20205;-66
2022/07/10 04:48:09;;;;;;;2.57;2.00;;;14.80;99.90;16.60;97059.00;;;;5046104;28;20222;-66
2022/07/10 04:50:58;;;;;;;3.23;2.40;;;14.90;99.90;16.60;97058.00;;;;5031948;28;20221;-67
2022/07/10 04:53:47;;;;;;;4.07;2.70;;;15.00;99.90;16.90;97057.00;;;;5051750;28;20211;-66
2022/07/10 04:56:36;;;;;;;3.00;2.30;;;15.10;99.90;16.80;97053.00;;;;5043813;28;20256;-66
2022/07/10 04:59:24;;;;;;;2.53;2.33;;;15.20;99.90;16.70;97047.00;;;;5047055;28;20236;-66
2022/07/10 05:02:15;;;;;;;2.60;2.40;;;15.30;99.90;16.70;97049.00;;;;5047817;28;20203;-67
2022/07/10 05:05:04;;;;;;;2.80;2.57;;;15.30;99.90;16.90;97046.00;;;;5042749;28;20271;-67
2022/07/10 05:07:53;;;;;;;2.50;2.30;;;15.40;99.90;17.00;97042.00;;;;5046061;28;20702;-67
2022/07/10 05:10:42;;;;;;;2.80;2.30;;;15.40;99.90;16.90;97047.00;;;;5051872;28;20234;-67
2022/07/10 05:13:31;;;;;;;2.40;2.20;;;15.50;99.90;16.80;97045.00;;;;5032120;28;20209;-66
2022/07/10 05:16:20;;;;;;;1.93;1.83;;;15.50;99.90;17.00;97048.00;;;;5032227;28;20228;-67
2022/07/10 05:19:10;;;;;;;2.90;2.70;;;15.50;99.90;17.00;97043.00;;;;5038089;28;20189;-67
2022/07/10 05:21:59;;;;;;;5.50;2.53;;;15.50;99.90;17.00;97040.00;;;;5051683;28;20212;-66
2022/07/10 05:24:48;;;;;;;4.27;2.77;;;15.50;99.90;17.10;97040.00;;;;5051099;28;20601;-66
2022/07/10 05:27:37;;;;;;;3.30;3.00;;;15.50;99.90;17.20;97043.00;;;;5050072;28;20196;-66
2022/07/10 05:30:25;;;;;;;3.60;2.60;;;15.60;99.90;17.20;97042.00;;;;5048483;28;20224;-66
2022/07/10 05:33:14;;;;;;;2.73;2.50;;;15.60;99.90;17.20;97036.00;;;;5051592;28;20201;-66
2022/07/10 05:36:06;;;;;;;2.53;2.23;;;15.70;99.90;17.30;97042.00;;;;5051304;28;20229;-66
2022/07/10 05:38:54;;;;;;;2.33;2.17;;;15.70;99.90;17.00;97045.00;;;;5035185;28;20212;-66
2022/07/10 05:41:43;;;;;;;2.87;2.57;;;15.70;99.90;16.60;97042.00;;;;5051580;28;20696;-66
2022/07/10 05:44:33;;;;;;;3.17;2.83;;;15.60;99.90;16.80;97039.00;;;;5040910;28;20731;-66
2022/07/10 05:47:21;;;;;;;3.57;2.53;;;15.60;99.90;16.60;97035.00;;;;5030686;28;20209;-66
2022/07/10 05:50:11;;;;;;;2.67;2.47;;;15.50;99.90;16.80;97040.00;;;;5045974;28;20228;-66
2022/07/10 05:53:01;;;;;;;2.97;2.67;;;15.50;99.90;16.70;97035.00;;;;5039244;28;20212;-66
2022/07/10 05:55:50;;;;;;;6.43;3.00;;;15.50;99.90;16.80;97042.00;;;;5038757;28;20220;-66
2022/07/10 05:58:38;;;;;;;3.10;2.90;;;15.50;99.90;16.90;97050.00;;;;5050687;28;20828;-66
2022/07/10 06:01:27;;;;;;;3.83;2.53;;;15.50;99.90;16.80;97058.00;;;;5050686;28;20575;-66
2022/07/10 06:04:16;;;;;;;3.33;3.13;;;15.50;99.90;16.90;97045.00;;;;5048397;28;20208;-66
2022/07/10 06:07:05;;;;;;;3.13;2.93;;;15.50;99.90;17.20;97045.00;;;;5050948;28;20209;-66
2022/07/10 06:09:56;;;;;;;2.37;2.17;;;15.60;99.90;17.30;97051.00;;;;5037675;28;20237;-66
2022/07/10 06:12:44;;;;;;;3.17;2.87;;;15.70;99.90;17.20;97046.00;;;;5030682;28;20206;-66
2022/07/10 06:15:33;;;;;;;3.00;2.80;;;15.70;99.90;17.20;97051.00;;;;5030379;28;20209;-66
2022/07/10 06:18:22;;;;;;;2.77;2.57;;;15.80;99.90;17.20;97051.00;;;;5038068;28;20212;-66
2022/07/10 06:21:11;;;;;;;3.00;2.80;;;15.80;99.90;17.30;97055.00;;;;5034013;28;20225;-66
2022/07/10 06:24:00;;;;;;;3.00;2.80;;;15.80;99.90;17.20;97054.00;;;;5039583;28;20212;-66
2022/07/10 06:26:50;;;;;;;3.07;2.77;;;15.80;99.90;17.20;97051.00;;;;5049162;28;20680;-66
2022/07/10 06:29:39;;;;;;;5.03;2.90;;;15.90;99.90;16.90;97042.00;;;;5046644;28;20231;-67
2022/07/10 06:32:28;;;;;;;2.67;2.47;;;15.80;99.90;17.50;97038.00;;;;5049425;28;20691;-66
2022/07/10 06:35:17;;;;;;;4.40;3.17;;;15.80;99.90;17.70;97057.00;;;;5050670;28;20203;-66
2022/07/10 06:38:06;;;;;;;3.10;2.80;;;15.90;99.90;17.40;97053.00;;;;5049903;28;20668;-66
2022/07/10 06:40:55;;;;;;;5.63;3.30;;;16.00;99.90;17.40;97048.00;;;;5030982;28;20696;-67
2022/07/10 06:43:45;;;;;;;3.10;2.80;;;16.00;99.90;17.60;97051.00;;;;5029399;28;20605;-67
2022/07/10 06:46:34;;;;;;;5.80;2.83;;;16.00;99.90;17.80;97050.00;;;;5030297;28;20208;-66
2022/07/10 06:49:22;;;;;;;3.03;2.83;;;16.10;99.90;17.90;97045.00;;;;5037019;28;20224;-66
2022/07/10 06:52:11;;;;;;;3.60;3.30;;;16.20;99.90;18.20;97020.00;;;;5037917;28;20212;-67
2022/07/10 06:55:00;;;;;;;4.17;2.80;;;16.30;99.90;18.70;97047.00;;;;5049941;28;20193;-66
2022/07/10 06:57:49;;;;;;;3.20;2.93;;;16.50;99.90;18.70;97026.00;;;;5049657;28;20711;-67
2022/07/10 07:00:39;;;;;;;3.67;3.27;;;16.70;99.90;18.80;97034.00;;;;5033443;28;20225;-67
2022/07/10 07:03:28;;;;;;;2.57;2.37;;;16.90;99.90;19.10;97033.00;;;;5034139;28;20212;-67
2022/07/10 07:06:17;;;;;;;3.30;2.97;;;17.00;99.90;19.10;97028.00;;;;5043851;28;20193;-67
2022/07/10 07:09:06;;;;;;;2.60;2.40;;;17.20;99.90;18.60;97030.00;;;;5039265;28;20212;-67
2022/07/10 07:11:54;;;;;;;3.73;2.90;;;17.30;99.90;18.60;97031.00;;;;5042109;28;20200;-68
2022/07/10 07:14:43;;;;;;;2.97;2.57;;;17.30;99.90;18.80;97026.00;;;;5049236;28;20208;-67
2022/07/10 07:17:46;;;;;;;3.73;2.40;;;17.40;99.90;19.20;97017.00;;;;5049089;28;20224;-67
2022/07/10 07:23:41;;;;;;;2.27;2.17;;;17.70;99.90;20.00;97018.00;;;;5044656;28;20205;-67
2022/07/10 07:26:30;;;;;;;2.60;2.40;;;17.80;99.90;19.60;96999.00;;;;5045780;28;20208;-67
2022/07/10 07:29:19;;;;;;;2.03;1.93;;;18.00;99.90;20.20;96991.00;;;;5044743;28;20227;-68
2022/07/10 07:32:09;;;;;;;3.97;2.70;;;18.20;99.90;19.80;97006.00;;;;5037775;28;20736;-68
2022/07/10 07:34:59;;;;;;;2.37;2.17;;;18.30;99.90;20.30;97013.00;;;;5044340;28;20738;-67
2022/07/10 07:37:51;;;;;;;2.50;2.00;;;18.50;99.90;20.30;97014.00;;;;5023156;28;20279;-67
2022/07/10 07:40:40;;;;;;;1.83;1.70;;;18.60;99.90;20.00;97013.00;;;;5045375;28;20243;-66
2022/07/10 07:43:29;;;;;;;2.00;1.80;;;18.60;99.90;19.50;96996.00;;;;5041493;28;20227;-66
2022/07/10 07:46:18;;;;;;;2.10;1.90;;;18.50;99.90;19.40;96997.00;;;;5048317;28;20573;-66
2022/07/10 07:49:06;;;;;;;3.53;1.90;;;18.40;99.90;19.00;97001.00;;;;5045225;28;20198;-66
2022/07/10 07:51:57;;;;;;;1.97;1.73;;;18.20;99.90;19.10;97004.00;;;;5028679;28;20205;-66
2022/07/10 07:54:46;;;;;;;1.83;1.73;;;18.10;99.90;20.10;96997.00;;;;5030588;28;20213;-66
2022/07/10 07:57:34;;;;;;;1.73;1.63;;;18.10;99.90;20.60;96998.00;;;;5038789;28;20625;-66
2022/07/10 08:00:26;;;;;;;1.87;1.77;;;18.30;99.90;20.80;96998.00;;;;5051438;28;20233;-66
2022/07/10 08:03:16;;;;;;;1.60;1.50;;;18.50;99.90;21.40;96997.00;;;;5041197;28;20649;-67
2022/07/10 08:06:05;;;;;;;1.67;1.30;;;18.80;99.90;21.10;96990.00;;;;5043460;28;20201;-67
2022/07/10 08:08:55;;;;;;;1.53;1.33;;;19.00;99.90;21.10;96996.00;;;;5042840;28;20200;-66
2022/07/10 08:11:44;;;;;;;1.40;1.30;;;19.30;99.90;20.80;96977.00;;;;5044927;28;20212;-67
2022/07/10 08:14:32;;;;;;;2.37;1.30;;;19.30;99.90;20.70;96983.00;;;;5040262;28;20213;-66
2022/07/10 08:17:22;;;;;;;1.60;1.50;;;19.30;99.90;20.60;96966.00;;;;5045973;28;20224;-67
2022/07/10 08:20:13;;;;;;;2.23;1.77;;;19.40;99.90;21.10;96975.00;;;;5038972;28;20650;-67
2022/07/10 08:23:02;;;;;;;1.50;1.40;;;19.50;99.90;21.20;96962.00;;;;5047549;28;20200;-66
2022/07/10 08:25:52;;;;;;;1.50;1.40;;;19.60;99.90;21.30;96968.00;;;;5047724;28;20576;-66
2022/07/10 08:28:41;;;;;;;1.50;1.40;;;19.70;99.90;21.80;96980.00;;;;5046449;28;20208;-67
2022/07/10 08:31:30;;;;;;;1.70;1.60;;;19.90;99.90;21.10;96967.00;;;;5028935;28;20221;-68
2022/07/10 08:34:19;;;;;;;1.30;1.20;;;20.00;99.90;21.10;96951.00;;;;5028407;28;20288;-67
2022/07/10 08:37:08;;;;;;;1.33;1.23;;;20.00;99.90;22.00;96948.00;;;;5027682;28;20235;-66
2022/07/10 08:39:57;;;;;;;1.43;1.33;;;20.20;99.90;21.30;96960.00;;;;5036754;28;20238;-67
2022/07/10 08:42:47;;;;;;;1.50;1.30;;;20.20;99.90;22.50;96931.00;;;;5037327;28;20223;-66
2022/07/10 08:45:36;;;;;;;1.43;1.33;;;20.40;99.90;22.90;96945.00;;;;5047455;28;20215;-66
2022/07/10 08:48:25;;;;;;;1.00;1.00;;;20.60;99.90;24.10;96927.00;;;;5047003;28;20710;-66
2022/07/10 08:51:21;;;;;;;1.20;1.10;;;21.10;99.90;23.40;96952.00;;;;5028212;28;20850;-66
2022/07/10 08:54:10;;;;;;;2.53;1.00;;;21.30;99.90;23.60;96925.00;;;;5037329;28;20200;-66
2022/07/10 08:57:00;;;;;;;1.73;1.20;;;21.40;99.90;23.80;96941.00;;;;5047787;28;20227;-67
2022/07/10 08:59:50;;;;;;;0.90;0.90;;;21.60;99.90;24.80;96917.00;;;;5047677;28;20224;-67
2022/07/10 09:02:39;;;;;;;1.20;1.03;;;21.90;99.90;25.50;96921.00;;;;5046267;28;20691;-67
2022/07/10 09:05:28;;;;;;;2.17;1.30;;;22.40;99.90;25.80;96895.00;;;;5048599;28;20278;-67
2022/07/10 09:08:24;;;;;;;1.47;1.23;;;22.90;99.90;25.40;96914.00;;;;5047083;28;20208;-67
2022/07/10 09:11:17;;;;;;;1.60;1.27;;;23.20;99.90;25.60;96916.00;;;;5034141;28;20645;-67
2022/07/10 09:14:08;;;;;;;1.60;1.50;;;23.30;99.90;25.40;96912.00;;;;5034584;28;20220;-66
2022/07/10 09:16:58;;;;;;;1.80;1.37;;;23.40;99.90;25.80;96892.00;;;;5027716;28;20201;-67
2022/07/10 09:19:47;;;;;;;1.00;0.90;;;23.50;99.90;26.40;96893.00;;;;5040969;28;20213;-67
2022/07/10 09:22:37;;;;;;;1.30;1.20;;;23.70;99.70;26.40;96880.00;;;;5049336;28;20212;-67
2022/07/10 09:25:34;;;;;;;2.63;1.20;;;24.00;97.60;24.80;96886.00;;;;5042850;28;20218;-67
2022/07/10 09:28:24;;;;;;;0.83;0.80;;;24.10;87.80;25.70;96892.00;;;;5042793;28;20194;-67
2022/07/10 09:31:13;;;;;;;0.90;0.90;;;24.10;87.50;25.80;96913.00;;;;5049477;28;20221;-67
2022/07/10 09:34:03;;;;;;;1.57;0.90;;;24.20;83.80;23.40;96898.00;;;;5050892;28;20215;-68
2022/07/10 09:36:52;;;;;;;2.47;1.00;;;23.60;80.50;23.10;96883.00;;;;5050783;28;20212;-65
2022/07/10 09:39:55;;;;;;;2.30;1.10;;;23.10;77.70;23.30;96892.00;;;;5048226;28;20235;-67
2022/07/10 09:42:45;;;;;;;0.80;0.80;;;22.80;77.90;24.80;96881.00;;;;5040075;28;20226;-64
2022/07/10 09:45:35;;;;;;;1.63;1.53;;;23.00;77.90;24.20;96887.00;;;;5049698;28;20208;-68
2022/07/10 09:48:26;;;;;;;1.13;1.07;;;23.20;74.40;23.20;96837.00;;;;5050092;28;20197;-68
2022/07/10 09:51:17;;;;;;;1.20;1.07;;;23.00;74.90;24.70;96887.00;;;;5032365;28;20213;-65
2022/07/10 09:54:07;;;;;;;1.37;1.27;;;23.00;75.00;26.20;96875.00;;;;5030855;28;20220;-66
2022/07/10 09:56:57;;;;;;;1.13;1.03;;;23.50;77.00;25.20;96866.00;;;;5029819;28;20232;-64
2022/07/10 09:59:46;;;;;;;1.13;1.03;;;23.90;73.10;25.20;96892.00;;;;5050547;28;20220;-64
2022/07/10 10:02:39;;;;;;;2.30;1.10;;;23.90;71.10;25.10;96851.00;;;;5051292;28;20200;-67
2022/07/10 10:05:37;;;;;;;1.13;1.00;;;23.90;67.40;25.30;96833.00;;;;5050167;28;20241;-68
2022/07/10 10:08:33;;;;;;;1.30;1.00;;;24.00;71.80;25.50;96891.00;;;;5049159;28;20204;-65
2022/07/10 10:11:25;;;;;;;1.27;1.10;;;24.10;66.80;24.60;96891.00;;;;5031635;28;20205;-68
2022/07/10 10:14:16;;;;;;;0.87;0.83;;;23.90;68.60;25.70;96890.00;;;;5030615;28;20205;-66
2022/07/10 10:17:07;;;;;;;2.17;1.00;;;23.80;68.30;24.70;96841.00;;;;5030474;28;20201;-64
2022/07/10 10:23:06;;;;;;;0.70;0.70;;;23.50;69.60;23.80;96908.00;;;;5032094;28;20556;-65
2022/07/10 10:25:58;;;;;;;1.23;1.10;;;23.10;68.00;23.20;96911.00;;;;5041802;28;20218;-65
2022/07/10 10:28:47;;;;;;;1.33;1.23;;;22.70;66.90;23.10;96923.00;;;;5047521;28;20215;-66
2022/07/10 10:31:36;;;;;;;1.00;1.00;;;22.30;67.00;23.60;96934.00;;;;5048195;28;20671;-65
2022/07/10 10:34:42;;;;;;;1.50;1.00;;;22.20;70.20;23.20;96946.00;;;;5037340;28;20211;-68
2022/07/10 10:37:37;;;;;;;1.50;1.40;;;22.10;70.40;23.60;96956.00;;;;5039872;28;20584;-65
2022/07/10 10:40:33;;;;;;;1.00;0.97;;;22.00;73.00;23.60;96960.00;;;;5048914;28;20707;-66
2022/07/10 10:43:25;;;;;;;1.37;1.27;;;21.90;72.90;23.10;96950.00;;;;5042749;28;20211;-66
2022/07/10 10:46:25;;;;;;;3.03;1.23;;;21.80;77.50;23.10;96928.00;;;;5050547;28;20193;-66
2022/07/10 10:49:14;;;;;;;1.20;1.20;;;21.70;88.00;23.60;96917.00;;;;5048760;28;20373;-68
2022/07/10 10:52:09;;;;;;;1.27;1.17;;;22.00;76.70;23.90;96882.00;;;;5050018;28;20200;-67
2022/07/10 10:55:08;;;;;;;1.30;1.20;;;22.10;79.30;24.40;96893.00;;;;5049175;28;20200;-66
2022/07/10 10:58:16;;;;;;;2.03;1.30;;;22.40;80.30;24.60;96900.00;;;;5048757;28;20243;-67
2022/07/10 11:01:25;;;;;;;1.27;1.00;;;22.50;80.90;25.20;96857.00;;;;5043263;28;20226;-66
2022/07/10 11:04:17;;;;;;;1.40;1.30;;;22.70;81.90;27.30;96830.00;;;;5041463;28;20204;-67
2022/07/10 11:07:06;;;;;;;1.13;1.03;;;23.50;82.10;27.40;96834.00;;;;5039648;28;20205;-66
2022/07/10 11:10:28;;;;;;;0.80;0.80;;;24.20;79.00;27.60;96836.00;;;;5032349;28;20707;-67
2022/07/10 11:13:18;;;;;;;1.67;1.57;;;24.80;76.90;29.30;96894.00;;;;5043441;28;20228;-66
2022/07/10 11:16:14;;;;;;;1.57;1.03;;;25.50;73.50;27.50;96902.00;;;;5029616;28;20209;-66
2022/07/10 11:19:04;;;;;;;1.10;1.00;;;25.60;69.60;26.20;96906.00;;;;5035504;28;20225;-66
2022/07/10 11:22:22;;;;;;;1.13;1.03;;;25.30;66.60;26.30;96874.00;;;;5029332;28;20206;-66
2022/07/10 11:25:30;;;;;;;3.07;1.47;;;25.00;69.30;27.40;96871.00;;;;5043873;28;20200;-67
2022/07/10 11:28:25;;;;;;;1.47;1.03;;;25.00;70.10;26.40;96892.00;;;;5047607;28;20215;-67
2022/07/10 11:31:16;;;;;;;1.00;0.90;;;24.90;65.60;26.50;96888.00;;;;5044097;28;20621;-66
2022/07/10 11:34:05;;;;;;;2.10;1.97;;;24.80;66.10;26.90;96815.00;;;;5047352;28;20215;-67
2022/07/10 11:36:54;;;;;;;1.27;1.17;;;25.00;69.70;27.40;96885.00;;;;5047402;28;20212;-67
2022/07/10 11:39:43;;;;;;;1.20;1.10;;;25.20;69.70;27.20;96879.00;;;;5043025;28;20248;-66
2022/07/10 11:42:50;;;;;;;1.47;1.37;;;25.30;67.50;26.80;96804.00;;;;5039943;28;20229;-67
2022/07/10 11:45:39;;;;;;;1.90;1.17;;;25.30;66.20;27.70;96888.00;;;;5029706;28;20208;-67
2022/07/10 11:48:29;;;;;;;1.10;1.00;;;25.40;66.00;26.70;96885.00;;;;5041739;28;20214;-67
2022/07/10 11:51:24;;;;;;;1.03;0.93;;;25.20;65.90;26.60;96884.00;;;;5045017;28;20214;-67
2022/07/10 11:54:15;;;;;;;2.27;1.27;;;25.00;67.50;26.10;96896.00;;;;5045404;28;20555;-66
2022/07/10 11:57:08;;;;;;;1.30;1.20;;;24.70;66.80;26.00;96892.00;;;;5043223;28;20206;-66
2022/07/10 11:59:57;;;;;;;1.17;1.10;;;24.50;67.50;25.40;96897.00;;;;5028799;28;20238;-66
2022/07/10 12:02:45;;;;;;;1.13;1.03;;;24.30;67.80;24.80;96908.00;;;;5035353;28;20210;-68
2022/07/10 12:05:39;;;;;;;0.87;0.87;;;24.00;66.10;24.50;96921.00;;;;5042724;28;20577;-68
2022/07/10 12:08:28;;;;;;;0.90;0.90;;;23.60;67.00;24.50;96928.00;;;;5035563;28;20204;-67
2022/07/10 12:11:19;;;;;;;2.00;1.10;;;23.30;68.60;24.00;96935.00;;;;5048319;28;20229;-67
2022/07/10 12:14:14;;;;;;;5.50;1.50;;;23.00;70.20;23.50;96935.00;;;;5043958;28;20581;-67
2022/07/10 12:17:12;;;;;;;1.47;1.37;;;22.70;75.40;24.10;96946.00;;;;5044345;28;20196;-67
2022/07/10 12:20:01;;;;;;;1.40;1.30;;;22.60;81.30;24.00;96942.00;;;;5046997;28;20251;-68
2022/07/10 12:22:53;;;;;;;1.57;1.47;;;22.50;85.20;24.30;96939.00;;;;5047162;28;20200;-68
2022/07/10 12:25:43;;;;;;;1.07;1.00;;;22.60;90.30;24.40;96933.00;;;;5044416;28;20215;-67
2022/07/10 12:28:32;;;;;;;1.57;1.47;;;22.60;91.60;24.50;96937.00;;;;5045726;28;20676;-67
2022/07/10 12:31:29;;;;;;;1.17;1.10;;;22.60;91.80;24.60;96936.00;;;;5047881;28;20201;-67
2022/07/10 12:34:18;;;;;;;2.30;1.37;;;22.70;94.30;24.90;96938.00;;;;5045800;28;20338;-67
2022/07/10 12:37:10;;;;;;;1.40;1.30;;;22.80;96.10;24.80;96931.00;;;;5046454;28;20188;-67
2022/07/10 12:40:00;;;;;;;1.10;0.93;;;22.80;95.10;24.90;96934.00;;;;5046731;28;20235;-67
2022/07/10 12:42:49;;;;;;;1.20;1.10;;;22.90;95.90;24.70;96935.00;;;;5047320;28;20196;-67
2022/07/10 12:45:38;;;;;;;1.20;1.10;;;22.90;93.90;26.80;96854.00;;;;5046937;28;20208;-67
2022/07/10 12:48:26;;;;;;;1.53;1.20;;;23.50;94.70;28.10;96854.00;;;;5045759;28;20212;-67
2022/07/10 12:51:24;;;;;;;0.80;0.80;;;24.40;93.00;28.60;96871.00;;;;5045942;28;20216;-67